Time;durP1;ratioP1;P1;durP2;ratioP2;P2;SDS_P1;SDS_P2;PMS_P1;PMS_P2;Temp;Humidity;BMP_temperature;BMP_pressure;BME280_temperature;BME280_humidity;BME280_pressure;Samples;Min_cycle;Max_cycle;Signal;HPM_P1;HPM_P2
2023/09/19 00:01:07;;;;;;;2.23;2.03;;;16.90;99.90;;;;;;5028746;28;20625;-59
2023/09/19 00:03:37;;;;;;;2.30;2.10;;;16.90;99.90;;;;;;5030091;28;20495;-58
2023/09/19 00:06:07;;;;;;;2.80;2.53;;;16.90;99.90;;;;;;5032788;28;21052;-59
2023/09/19 00:08:36;;;;;;;2.90;2.43;;;16.90;99.90;;;;;;5032982;28;20563;-58
2023/09/19 00:11:04;;;;;;;3.00;1.90;;;16.90;99.90;;;;;;5029604;28;20575;-60
2023/09/19 00:13:32;;;;;;;2.80;2.20;;;16.80;99.90;;;;;;5031264;28;20550;-60
2023/09/19 00:16:00;;;;;;;2.73;2.00;;;16.80;99.90;;;;;;5026809;28;20509;-59
2023/09/19 00:18:32;;;;;;;3.60;2.10;;;16.90;99.90;;;;;;5035771;28;20570;-59
2023/09/19 00:21:00;;;;;;;3.10;2.37;;;16.90;99.90;;;;;;5030656;28;20557;-59
2023/09/19 00:23:31;;;;;;;2.20;1.97;;;16.90;99.90;;;;;;5028029;28;20502;-59
2023/09/19 00:26:00;;;;;;;2.60;2.40;;;16.80;99.90;;;;;;5032377;28;21025;-60
2023/09/19 00:28:29;;;;;;;2.20;2.00;;;16.90;99.90;;;;;;5031649;28;20497;-59
2023/09/19 00:31:01;;;;;;;3.87;2.30;;;16.80;99.90;;;;;;5026691;28;20470;-58
2023/09/19 00:33:30;;;;;;;2.43;2.23;;;16.90;99.90;;;;;;5028895;28;20672;-60
2023/09/19 00:35:58;;;;;;;2.13;1.97;;;16.90;99.90;;;;;;5033031;28;20491;-59
2023/09/19 00:38:27;;;;;;;4.93;2.23;;;16.80;99.90;;;;;;5031072;28;20477;-59
2023/09/19 00:40:59;;;;;;;4.23;2.73;;;16.80;99.90;;;;;;5027218;28;20497;-59
2023/09/19 00:43:29;;;;;;;3.17;2.17;;;16.80;99.90;;;;;;5026438;28;20764;-58
2023/09/19 00:45:59;;;;;;;3.73;2.57;;;16.80;99.90;;;;;;5030149;28;20567;-60
2023/09/19 00:48:28;;;;;;;2.83;2.33;;;16.80;99.90;;;;;;5028682;28;20474;-59
2023/09/19 00:50:59;;;;;;;2.43;2.23;;;16.80;99.90;;;;;;5031569;28;20482;-59
2023/09/19 00:53:27;;;;;;;9.80;3.50;;;16.80;99.90;;;;;;5028772;28;20506;-60
2023/09/19 00:55:57;;;;;;;3.80;2.47;;;16.70;99.90;;;;;;5025514;28;20947;-60
2023/09/19 00:58:25;;;;;;;3.23;2.80;;;16.70;99.90;;;;;;5034167;28;20528;-59
2023/09/19 01:00:53;;;;;;;3.50;2.90;;;16.60;99.90;;;;;;5026410;28;21089;-59
2023/09/19 01:03:23;;;;;;;4.73;3.27;;;16.70;99.90;;;;;;5030471;28;20610;-59
2023/09/19 01:05:51;;;;;;;3.83;2.90;;;16.70;99.90;;;;;;5027355;28;20548;-58
2023/09/19 01:08:19;;;;;;;2.90;2.70;;;16.80;99.90;;;;;;5030068;28;20556;-59
2023/09/19 01:10:53;;;;;;;3.23;2.90;;;16.80;99.90;;;;;;5031217;28;20557;-60
2023/09/19 01:13:31;;;;;;;3.13;2.60;;;16.80;99.90;;;;;;5032152;28;21003;-58
2023/09/19 01:16:08;;;;;;;3.23;2.93;;;16.80;99.90;;;;;;5029929;28;20486;-59
2023/09/19 01:18:44;;;;;;;5.53;2.70;;;16.80;99.90;;;;;;5032740;28;21010;-59
2023/09/19 01:21:21;;;;;;;5.30;3.23;;;16.80;99.90;;;;;;5020905;28;20491;-58
2023/09/19 01:24:20;;;;;;;3.07;2.80;;;16.70;99.90;;;;;;5025603;28;21000;-59
2023/09/19 01:27:07;;;;;;;3.40;2.73;;;16.70;99.90;;;;;;5029906;28;21077;-58
2023/09/19 01:29:40;;;;;;;3.50;3.20;;;16.70;99.90;;;;;;5032955;28;20813;-59
2023/09/19 01:32:13;;;;;;;3.60;3.30;;;16.70;99.90;;;;;;5031118;28;20581;-59
2023/09/19 01:34:50;;;;;;;3.20;2.90;;;16.70;99.90;;;;;;5031625;28;20463;-59
2023/09/19 01:37:20;;;;;;;3.70;3.40;;;16.70;99.90;;;;;;5026856;28;20502;-58
2023/09/19 01:39:57;;;;;;;4.10;3.13;;;16.70;99.90;;;;;;5029235;28;20471;-59
2023/09/19 01:42:36;;;;;;;4.07;3.20;;;16.70;99.90;;;;;;5026173;28;20593;-58
2023/09/19 01:45:10;;;;;;;3.47;2.93;;;16.70;99.90;;;;;;5031014;28;20630;-58
2023/09/19 01:47:47;;;;;;;3.83;2.70;;;16.70;99.90;;;;;;5023651;28;20499;-58
2023/09/19 01:50:27;;;;;;;4.80;2.80;;;16.70;99.90;;;;;;5030444;28;21001;-59
2023/09/19 01:53:00;;;;;;;4.60;2.70;;;16.80;99.90;;;;;;5025069;28;20533;-59
2023/09/19 01:55:30;;;;;;;3.23;2.60;;;16.80;99.90;;;;;;5031965;28;20513;-59
2023/09/19 01:58:07;;;;;;;2.80;2.50;;;16.70;99.90;;;;;;5029956;28;21221;-59
2023/09/19 02:00:41;;;;;;;2.53;2.33;;;16.70;99.90;;;;;;5027957;28;20532;-59
2023/09/19 02:03:14;;;;;;;3.40;2.10;;;16.70;99.90;;;;;;5023644;28;20490;-59
2023/09/19 02:05:49;;;;;;;3.70;2.10;;;16.70;99.90;;;;;;5027075;28;20570;-57
2023/09/19 02:08:18;;;;;;;2.77;1.97;;;16.60;99.90;;;;;;5025262;28;20469;-59
2023/09/19 02:10:48;;;;;;;4.20;2.30;;;16.60;99.90;;;;;;5024259;28;20482;-59
2023/09/19 02:13:18;;;;;;;4.07;2.40;;;16.50;99.90;;;;;;5030407;28;20475;-59
2023/09/19 02:15:47;;;;;;;2.80;2.00;;;16.50;99.90;;;;;;5028500;28;20517;-59
2023/09/19 02:18:16;;;;;;;2.23;2.03;;;16.50;99.90;;;;;;5023496;28;20494;-59
2023/09/19 02:20:45;;;;;;;2.67;2.40;;;16.40;99.90;;;;;;5031665;28;20586;-59
2023/09/19 02:23:15;;;;;;;3.10;2.80;;;16.40;99.90;;;;;;5027372;28;20510;-59
2023/09/19 02:25:43;;;;;;;4.40;3.07;;;16.40;99.90;;;;;;5026775;28;20522;-59
2023/09/19 02:28:12;;;;;;;3.37;3.07;;;16.30;99.90;;;;;;5029325;28;20945;-60
2023/09/19 02:30:40;;;;;;;4.63;3.60;;;16.30;99.90;;;;;;5022768;28;20501;-59
2023/09/19 02:33:08;;;;;;;3.30;2.77;;;16.30;99.90;;;;;;5031355;28;20995;-60
2023/09/19 02:35:38;;;;;;;5.10;3.90;;;16.30;99.90;;;;;;5027610;28;20602;-59
2023/09/19 02:38:11;;;;;;;4.17;3.53;;;16.30;99.90;;;;;;5032785;28;20555;-60
2023/09/19 02:40:39;;;;;;;4.63;3.70;;;16.20;99.90;;;;;;5026754;28;20562;-58
2023/09/19 02:43:09;;;;;;;5.73;4.20;;;16.20;99.90;;;;;;5027845;28;20486;-60
2023/09/19 02:45:37;;;;;;;4.10;3.80;;;16.10;99.90;;;;;;5023772;28;20973;-59
2023/09/19 02:48:07;;;;;;;4.83;4.13;;;16.10;99.90;;;;;;5028311;28;20466;-59
2023/09/19 02:50:35;;;;;;;4.97;3.50;;;16.20;99.90;;;;;;5029346;28;21004;-58
2023/09/19 02:53:06;;;;;;;4.47;4.07;;;16.10;99.90;;;;;;5029757;28;20574;-59
2023/09/19 02:55:34;;;;;;;4.43;3.93;;;16.20;99.90;;;;;;5026739;28;22696;-58
2023/09/19 02:58:05;;;;;;;7.13;4.07;;;16.20;99.90;;;;;;5034190;28;20489;-60
2023/09/19 03:00:33;;;;;;;4.30;3.43;;;16.20;99.90;;;;;;5033825;28;21304;-60
2023/09/19 03:03:02;;;;;;;5.13;3.40;;;16.30;99.90;;;;;;5036234;28;20514;-59
2023/09/19 03:05:31;;;;;;;5.13;3.37;;;16.30;99.90;;;;;;5033711;28;20501;-59
2023/09/19 03:08:00;;;;;;;3.53;3.10;;;16.30;99.90;;;;;;5033363;28;20467;-59
2023/09/19 03:10:30;;;;;;;2.80;2.60;;;16.40;99.90;;;;;;5029768;28;20474;-59
2023/09/19 03:12:59;;;;;;;3.00;2.70;;;16.40;99.90;;;;;;5034754;28;20486;-58
2023/09/19 03:15:27;;;;;;;4.47;2.67;;;16.40;99.90;;;;;;5035707;28;20998;-58
2023/09/19 03:17:55;;;;;;;5.27;3.20;;;16.40;99.90;;;;;;5031203;28;20509;-57
2023/09/19 03:20:23;;;;;;;3.90;2.97;;;16.40;99.90;;;;;;5032469;28;20473;-58
2023/09/19 03:22:51;;;;;;;2.70;2.50;;;16.40;99.90;;;;;;5030660;28;20494;-60
2023/09/19 03:25:22;;;;;;;4.63;2.70;;;16.40;99.90;;;;;;5032913;28;20595;-59
2023/09/19 03:27:52;;;;;;;6.23;2.70;;;16.40;99.90;;;;;;5033439;28;20486;-59
2023/09/19 03:30:21;;;;;;;4.57;2.50;;;16.40;99.90;;;;;;5032379;28;20571;-60
2023/09/19 03:32:50;;;;;;;4.00;2.60;;;16.40;99.90;;;;;;5032271;28;20494;-59
2023/09/19 03:35:19;;;;;;;3.67;2.30;;;16.40;99.90;;;;;;5038726;28;20494;-59
2023/09/19 03:37:47;;;;;;;2.60;2.40;;;16.30;99.90;;;;;;5036163;28;20467;-59
2023/09/19 03:40:17;;;;;;;6.53;3.33;;;16.40;99.90;;;;;;5031253;28;20474;-60
2023/09/19 03:42:45;;;;;;;6.00;2.40;;;16.40;99.90;;;;;;5031711;28;21027;-59
2023/09/19 03:45:15;;;;;;;3.37;2.57;;;16.30;99.90;;;;;;5031085;28;20490;-59
2023/09/19 03:47:43;;;;;;;4.37;2.77;;;16.30;99.90;;;;;;5032806;28;20478;-59
2023/09/19 03:50:12;;;;;;;5.87;3.20;;;16.20;99.90;;;;;;5032824;28;20471;-60
2023/09/19 03:52:40;;;;;;;7.37;2.53;;;16.20;99.90;;;;;;5031376;28;20490;-60
2023/09/19 03:55:09;;;;;;;2.80;2.57;;;16.20;99.90;;;;;;5032419;28;20470;-58
2023/09/19 03:57:38;;;;;;;3.80;2.70;;;16.20;99.90;;;;;;5033264;28;20489;-59
2023/09/19 04:00:11;;;;;;;5.60;3.23;;;16.20;99.90;;;;;;5027022;28;20482;-59
2023/09/19 04:02:41;;;;;;;3.17;2.30;;;16.20;99.90;;;;;;5031701;28;20483;-59
2023/09/19 04:05:10;;;;;;;4.00;2.70;;;16.20;99.90;;;;;;5029424;28;20525;-59
2023/09/19 04:07:38;;;;;;;3.13;2.33;;;16.20;99.90;;;;;;5033294;28;20473;-58
2023/09/19 04:10:08;;;;;;;5.50;2.40;;;16.20;99.90;;;;;;5033550;28;20474;-60
2023/09/19 04:12:36;;;;;;;3.17;2.50;;;16.10;99.90;;;;;;5033877;28;21039;-59
2023/09/19 04:15:05;;;;;;;4.17;2.50;;;16.10;99.90;;;;;;5034734;28;20542;-59
2023/09/19 04:17:34;;;;;;;2.07;1.97;;;16.00;99.90;;;;;;5026531;28;20472;-59
2023/09/19 04:20:07;;;;;;;5.33;2.10;;;16.00;99.90;;;;;;5024390;28;20482;-59
2023/09/19 04:22:35;;;;;;;4.27;1.87;;;15.90;99.90;;;;;;5028148;28;20893;-58
2023/09/19 04:25:03;;;;;;;2.07;1.87;;;15.90;99.90;;;;;;5024144;28;20526;-59
2023/09/19 04:27:32;;;;;;;5.07;2.00;;;15.80;99.90;;;;;;5029704;28;20914;-59
2023/09/19 04:30:00;;;;;;;2.80;2.20;;;15.80;99.90;;;;;;5025754;28;21023;-59
2023/09/19 04:32:29;;;;;;;3.20;2.40;;;15.70;99.90;;;;;;5023936;28;20483;-59
2023/09/19 04:35:00;;;;;;;5.90;2.23;;;15.70;99.90;;;;;;5025903;28;21096;-59
2023/09/19 04:37:29;;;;;;;4.60;2.27;;;15.70;99.90;;;;;;5028024;28;20855;-58
2023/09/19 04:39:57;;;;;;;3.30;1.77;;;15.60;99.90;;;;;;5029584;28;20989;-57
2023/09/19 04:42:25;;;;;;;2.83;1.90;;;15.60;99.90;;;;;;5033717;28;20505;-57
2023/09/19 04:44:54;;;;;;;4.20;2.40;;;15.60;99.90;;;;;;5028525;28;20498;-57
2023/09/19 04:47:22;;;;;;;3.90;1.87;;;15.50;99.90;;;;;;5030262;28;20579;-59
2023/09/19 04:49:50;;;;;;;5.17;2.10;;;15.50;99.90;;;;;;5029332;28;20463;-58
2023/09/19 04:52:20;;;;;;;5.60;2.17;;;15.50;99.90;;;;;;5025617;28;20862;-59
2023/09/19 04:54:49;;;;;;;5.50;2.10;;;15.50;99.90;;;;;;5028892;28;20498;-59
2023/09/19 04:57:17;;;;;;;3.47;1.70;;;15.40;99.90;;;;;;5032275;28;20582;-58
2023/09/19 04:59:45;;;;;;;3.17;2.33;;;15.40;99.90;;;;;;5034082;28;20476;-58
2023/09/19 05:02:13;;;;;;;3.20;1.87;;;15.40;99.90;;;;;;5030821;28;21066;-59
2023/09/19 05:04:41;;;;;;;4.73;2.00;;;15.30;99.90;;;;;;5032827;28;20520;-58
2023/09/19 05:07:10;;;;;;;6.47;2.80;;;15.30;99.90;;;;;;5032814;28;20616;-59
2023/09/19 05:09:38;;;;;;;3.23;2.03;;;15.30;99.90;;;;;;5028922;28;20522;-58
2023/09/19 05:12:10;;;;;;;3.77;2.17;;;15.30;99.90;;;;;;5024898;28;20589;-59
2023/09/19 05:14:40;;;;;;;6.50;2.10;;;15.30;99.90;;;;;;5033249;28;20935;-59
2023/09/19 05:17:08;;;;;;;4.20;1.90;;;15.20;99.90;;;;;;5025390;28;20603;-60
2023/09/19 05:19:36;;;;;;;5.67;2.10;;;15.20;99.90;;;;;;5028976;28;20479;-59
2023/09/19 05:22:06;;;;;;;3.50;1.80;;;15.20;99.90;;;;;;5024134;28;20625;-59
2023/09/19 05:24:34;;;;;;;4.60;2.00;;;15.20;99.90;;;;;;5025715;28;20478;-60
2023/09/19 05:27:04;;;;;;;3.40;2.07;;;15.10;99.90;;;;;;5021926;28;21436;-59
2023/09/19 05:29:34;;;;;;;6.17;2.00;;;15.10;99.90;;;;;;5019775;28;20486;-59
2023/09/19 05:32:03;;;;;;;2.80;1.90;;;15.00;99.90;;;;;;5030819;28;21039;-60
2023/09/19 05:34:31;;;;;;;3.77;2.07;;;15.00;99.90;;;;;;5023392;28;20470;-60
2023/09/19 05:36:59;;;;;;;5.00;2.30;;;14.90;99.90;;;;;;5029458;28;20485;-59
2023/09/19 05:39:27;;;;;;;2.90;2.07;;;14.90;99.90;;;;;;5030497;28;20467;-59
2023/09/19 05:41:57;;;;;;;5.57;2.03;;;14.90;99.90;;;;;;5027421;28;20572;-60
2023/09/19 05:44:25;;;;;;;2.10;1.63;;;14.80;99.90;;;;;;5034253;28;20550;-59
2023/09/19 05:46:56;;;;;;;5.57;1.77;;;14.80;99.90;;;;;;5033104;28;20503;-59
2023/09/19 05:49:25;;;;;;;3.60;1.83;;;14.80;99.90;;;;;;5029797;28;20581;-60
2023/09/19 05:51:55;;;;;;;4.43;2.00;;;14.90;99.90;;;;;;5026487;28;20552;-60
2023/09/19 05:54:22;;;;;;;4.87;2.00;;;14.90;99.90;;;;;;5028037;28;20574;-59
2023/09/19 05:56:52;;;;;;;4.50;2.23;;;14.90;99.90;;;;;;5034241;28;20831;-60
2023/09/19 05:59:20;;;;;;;4.30;2.13;;;15.00;99.90;;;;;;5033154;28;20960;-59
2023/09/19 06:01:48;;;;;;;4.40;2.10;;;15.00;99.90;;;;;;5035239;28;20498;-60
2023/09/19 06:04:18;;;;;;;4.97;2.27;;;15.00;99.90;;;;;;5037934;28;20478;-59
2023/09/19 06:06:48;;;;;;;6.07;1.90;;;15.00;99.90;;;;;;5037172;28;21000;-60
2023/09/19 06:09:17;;;;;;;5.00;2.30;;;15.10;99.90;;;;;;5036513;28;20573;-60
2023/09/19 06:11:45;;;;;;;4.90;3.20;;;15.10;99.90;;;;;;5036110;28;20541;-60
2023/09/19 06:14:13;;;;;;;2.87;1.83;;;15.10;99.90;;;;;;5037980;28;20462;-59
2023/09/19 06:16:41;;;;;;;2.83;2.07;;;15.10;99.90;;;;;;5036461;28;20521;-59
2023/09/19 06:19:10;;;;;;;4.10;2.30;;;15.20;99.90;;;;;;5037336;28;20621;-60
2023/09/19 06:21:39;;;;;;;4.10;2.37;;;15.20;99.90;;;;;;5036812;28;20825;-60
2023/09/19 06:24:08;;;;;;;5.80;2.10;;;15.30;99.90;;;;;;5036945;28;20540;-60
2023/09/19 06:26:36;;;;;;;5.70;2.03;;;15.30;99.90;;;;;;5028745;28;20499;-59
2023/09/19 06:29:07;;;;;;;3.90;2.10;;;15.40;99.90;;;;;;5038779;28;20991;-59
2023/09/19 06:31:35;;;;;;;5.50;2.67;;;15.60;99.90;;;;;;5038295;28;20590;-59
2023/09/19 06:34:04;;;;;;;4.07;2.27;;;15.70;99.90;;;;;;5036701;28;20471;-60
2023/09/19 06:36:32;;;;;;;4.93;2.57;;;15.70;99.90;;;;;;5039397;28;20603;-58
2023/09/19 06:39:04;;;;;;;5.47;2.47;;;15.70;99.90;;;;;;5035412;28;20486;-58
2023/09/19 06:41:32;;;;;;;6.60;2.40;;;15.70;99.90;;;;;;5039130;28;20513;-59
2023/09/19 06:44:00;;;;;;;5.50;2.10;;;15.70;99.90;;;;;;5038583;28;20562;-60
2023/09/19 06:46:32;;;;;;;5.53;2.13;;;15.70;99.90;;;;;;5037077;28;20502;-59
2023/09/19 06:49:00;;;;;;;9.50;2.00;;;15.70;99.90;;;;;;5041184;28;20951;-60
2023/09/19 06:51:29;;;;;;;3.83;2.30;;;15.70;99.90;;;;;;5034431;28;20643;-59
2023/09/19 06:53:58;;;;;;;3.07;2.30;;;15.70;99.90;;;;;;5035388;28;20969;-60
2023/09/19 06:56:27;;;;;;;5.40;2.57;;;15.70;99.90;;;;;;5038804;28;20999;-59
2023/09/19 06:58:55;;;;;;;3.30;1.93;;;15.80;99.90;;;;;;5038896;28;20568;-59
2023/09/19 07:01:24;;;;;;;6.87;2.50;;;15.70;99.90;;;;;;5034866;28;20529;-60
2023/09/19 07:03:53;;;;;;;3.80;2.10;;;15.70;99.90;;;;;;5038527;28;20482;-60
2023/09/19 07:06:21;;;;;;;3.93;2.40;;;15.80;99.90;;;;;;5038260;28;20491;-60
2023/09/19 07:08:50;;;;;;;6.80;2.40;;;15.80;99.90;;;;;;5037486;28;20464;-58
2023/09/19 07:11:18;;;;;;;6.67;2.30;;;15.80;99.90;;;;;;5032807;28;21038;-58
2023/09/19 07:13:47;;;;;;;5.17;2.10;;;15.80;99.90;;;;;;5037608;28;20470;-60
2023/09/19 07:16:27;;;;;;;4.13;2.37;;;15.80;99.90;;;;;;5037870;28;20580;-60
2023/09/19 07:18:56;;;;;;;3.93;2.67;;;15.90;99.90;;;;;;5037013;28;20481;-60
2023/09/19 07:21:24;;;;;;;6.33;2.50;;;15.80;99.90;;;;;;5032101;28;20498;-60
2023/09/19 07:23:52;;;;;;;6.47;2.47;;;15.90;99.90;;;;;;5032569;28;20477;-59
2023/09/19 07:26:20;;;;;;;5.77;2.30;;;15.90;99.90;;;;;;5035214;28;20588;-59
2023/09/19 07:28:49;;;;;;;4.70;2.70;;;16.00;99.90;;;;;;5033477;28;20570;-59
2023/09/19 07:31:17;;;;;;;5.57;2.53;;;16.00;99.90;;;;;;5032172;28;23338;-60
2023/09/19 07:33:45;;;;;;;6.37;2.63;;;16.00;99.90;;;;;;5035237;28;20474;-60
2023/09/19 07:36:14;;;;;;;6.33;2.20;;;16.00;99.90;;;;;;5037834;28;20514;-59
2023/09/19 07:38:42;;;;;;;5.73;2.33;;;16.00;99.90;;;;;;5037024;28;20471;-60
2023/09/19 07:41:10;;;;;;;4.03;2.37;;;16.00;99.90;;;;;;5037384;28;20506;-60
2023/09/19 07:43:40;;;;;;;3.93;1.97;;;16.10;99.90;;;;;;5038834;28;20569;-60
2023/09/19 07:46:10;;;;;;;4.53;2.67;;;16.00;99.90;;;;;;5037288;28;20589;-60
2023/09/19 07:48:38;;;;;;;3.73;2.50;;;16.00;99.90;;;;;;5038910;28;20482;-60
2023/09/19 07:51:07;;;;;;;8.40;2.63;;;16.00;99.90;;;;;;5038265;28;20578;-59
2023/09/19 07:53:37;;;;;;;6.70;2.87;;;16.00;99.90;;;;;;5038355;28;20529;-60
2023/09/19 07:56:06;;;;;;;7.80;2.80;;;15.90;99.90;;;;;;5038257;28;20502;-59
2023/09/19 07:58:36;;;;;;;3.17;2.23;;;15.80;99.90;;;;;;5038985;28;20640;-60
2023/09/19 08:01:06;;;;;;;3.47;2.60;;;15.80;99.90;;;;;;5036475;28;20475;-58
2023/09/19 08:03:40;;;;;;;5.13;2.53;;;15.70;99.90;;;;;;5038096;28;20558;-59
2023/09/19 08:06:08;;;;;;;5.13;2.70;;;15.50;99.90;;;;;;5036944;28;21022;-59
2023/09/19 08:08:37;;;;;;;6.23;2.97;;;15.50;99.90;;;;;;5033692;28;20502;-60
2023/09/19 08:11:12;;;;;;;4.80;3.10;;;15.40;99.90;;;;;;5034166;28;21065;-57
2023/09/19 08:13:43;;;;;;;6.27;3.30;;;15.40;99.90;;;;;;5036100;28;21084;-59
2023/09/19 08:16:11;;;;;;;5.63;3.20;;;15.30;99.90;;;;;;5031754;28;20491;-60
2023/09/19 08:18:40;;;;;;;6.93;2.90;;;15.20;99.90;;;;;;5036017;28;20519;-60
2023/09/19 08:21:10;;;;;;;6.23;2.70;;;15.30;99.90;;;;;;5031336;28;20545;-59
2023/09/19 08:23:39;;;;;;;6.83;3.10;;;15.40;99.90;;;;;;5031601;28;20471;-60
2023/09/19 08:26:07;;;;;;;5.70;3.00;;;15.40;99.90;;;;;;5034262;28;20568;-60
2023/09/19 08:28:36;;;;;;;6.37;3.60;;;15.40;99.90;;;;;;5036245;28;20862;-60
2023/09/19 08:31:05;;;;;;;7.07;3.80;;;15.50;99.90;;;;;;5034505;28;20557;-59
2023/09/19 08:33:34;;;;;;;7.40;3.43;;;15.50;99.90;;;;;;5033522;28;20557;-60
2023/09/19 08:36:04;;;;;;;8.63;3.60;;;15.50;99.90;;;;;;5036571;28;20644;-60
2023/09/19 08:38:35;;;;;;;5.00;3.10;;;15.60;99.90;;;;;;5037780;28;20470;-59
2023/09/19 08:41:08;;;;;;;9.77;3.90;;;15.60;99.90;;;;;;5036554;28;20554;-59
2023/09/19 08:43:36;;;;;;;6.93;3.30;;;15.60;99.90;;;;;;5038059;28;20498;-60
2023/09/19 08:46:11;;;;;;;7.63;2.93;;;15.70;99.90;;;;;;5036315;28;20486;-60
2023/09/19 08:48:44;;;;;;;6.00;3.47;;;15.70;99.90;;;;;;5034420;28;20490;-59
2023/09/19 08:51:19;;;;;;;4.60;3.20;;;15.80;99.90;;;;;;5036627;28;20582;-59
2023/09/19 08:53:52;;;;;;;7.70;2.90;;;15.80;99.90;;;;;;5037763;28;20564;-59
2023/09/19 08:56:23;;;;;;;7.40;3.70;;;15.80;99.90;;;;;;5034541;28;20679;-60
2023/09/19 08:58:54;;;;;;;6.40;3.17;;;15.90;99.90;;;;;;5038510;28;20475;-59
2023/09/19 09:01:24;;;;;;;6.20;3.07;;;16.00;99.90;;;;;;5036724;28;20835;-59
2023/09/19 09:03:54;;;;;;;6.40;2.90;;;16.10;99.90;;;;;;5037795;28;20466;-59
2023/09/19 09:06:25;;;;;;;8.03;3.13;;;16.10;99.90;;;;;;5036310;28;20495;-60
2023/09/19 09:08:53;;;;;;;4.50;3.17;;;16.10;99.90;;;;;;5033490;28;20581;-58
2023/09/19 09:11:24;;;;;;;5.83;2.80;;;16.10;99.90;;;;;;5035119;28;20574;-59
2023/09/19 09:13:52;;;;;;;6.33;3.00;;;16.20;99.90;;;;;;5036482;28;20470;-60
2023/09/19 09:16:20;;;;;;;6.27;2.87;;;16.20;99.90;;;;;;5032561;28;20495;-60
2023/09/19 09:18:52;;;;;;;5.83;3.53;;;16.30;99.90;;;;;;5033025;28;20463;-60
2023/09/19 09:21:23;;;;;;;6.50;3.13;;;16.30;99.90;;;;;;5033989;28;20491;-59
2023/09/19 09:23:52;;;;;;;7.47;3.47;;;16.30;99.90;;;;;;5028145;28;20665;-60
2023/09/19 09:26:42;;;;;;;5.90;3.00;;;16.30;99.90;;;;;;5034258;28;20494;-60
2023/09/19 09:29:10;;;;;;;7.90;2.93;;;16.50;99.90;;;;;;5032989;28;20681;-60
2023/09/19 09:31:42;;;;;;;6.37;3.20;;;16.50;99.90;;;;;;5033654;28;20486;-60
2023/09/19 09:34:13;;;;;;;6.73;3.50;;;16.50;99.90;;;;;;5032145;28;21022;-60
2023/09/19 09:36:43;;;;;;;4.63;2.87;;;16.60;99.90;;;;;;5035673;28;20514;-60
2023/09/19 09:39:19;;;;;;;5.47;2.77;;;16.70;99.90;;;;;;5032152;28;20761;-58
2023/09/19 09:41:47;;;;;;;7.67;2.97;;;16.80;99.90;;;;;;5032528;28;20523;-59
2023/09/19 09:44:17;;;;;;;4.67;2.60;;;16.90;99.90;;;;;;5032340;28;20928;-59
2023/09/19 09:47:27;;;;;;;6.93;3.10;;;17.00;99.90;;;;;;5031838;28;20505;-60
2023/09/19 09:49:54;;;;;;;4.60;2.53;;;17.10;99.90;;;;;;5034067;28;20525;-60
2023/09/19 09:52:25;;;;;;;4.00;2.43;;;17.20;99.90;;;;;;5034640;28;20572;-60
2023/09/19 09:55:05;;;;;;;7.17;3.10;;;17.30;99.90;;;;;;5031546;28;20500;-60
2023/09/19 09:57:34;;;;;;;5.10;2.20;;;17.30;99.90;;;;;;5034785;28;20998;-59
2023/09/19 10:00:20;;;;;;;5.10;2.40;;;17.40;99.90;;;;;;5031033;28;20466;-60
2023/09/19 10:02:48;;;;;;;10.17;2.33;;;17.40;99.90;;;;;;5029588;28;20873;-58
2023/09/19 10:05:22;;;;;;;5.53;2.63;;;17.50;99.90;;;;;;5035893;28;20551;-59
2023/09/19 10:07:54;;;;;;;4.17;2.27;;;17.60;99.90;;;;;;5031820;28;20535;-60
2023/09/19 10:10:39;;;;;;;4.53;2.50;;;17.70;99.90;;;;;;5031767;28;20502;-60
2023/09/19 10:13:12;;;;;;;6.93;2.53;;;17.80;99.90;;;;;;5034035;28;20479;-60
2023/09/19 10:15:42;;;;;;;5.67;2.17;;;17.90;99.90;;;;;;5035118;28;20549;-60
2023/09/19 10:18:18;;;;;;;7.53;2.00;;;17.90;99.90;;;;;;5033012;28;20929;-60
2023/09/19 10:20:48;;;;;;;5.10;2.20;;;18.00;99.90;;;;;;5032684;28;20473;-60
2023/09/19 10:23:23;;;;;;;4.70;2.10;;;18.00;99.90;;;;;;5029990;28;20483;-60
2023/09/19 10:25:51;;;;;;;6.30;2.43;;;18.00;99.90;;;;;;5031791;28;20581;-60
2023/09/19 10:28:22;;;;;;;5.03;2.03;;;18.10;99.90;;;;;;5035091;28;21022;-60
2023/09/19 10:30:52;;;;;;;4.80;2.10;;;18.20;99.90;;;;;;5032794;28;20486;-59
2023/09/19 10:33:22;;;;;;;4.10;2.47;;;18.20;99.90;;;;;;5031256;28;20467;-59
2023/09/19 10:35:52;;;;;;;3.83;1.80;;;18.20;99.90;;;;;;5029142;28;20991;-60
2023/09/19 10:38:24;;;;;;;3.53;2.30;;;18.20;99.90;;;;;;5030979;28;21483;-60
2023/09/19 10:40:54;;;;;;;3.37;2.00;;;18.20;99.90;;;;;;5031546;28;20524;-59
2023/09/19 10:43:27;;;;;;;3.70;2.00;;;18.20;99.90;;;;;;5029202;28;20470;-60
2023/09/19 10:46:03;;;;;;;4.67;2.40;;;18.20;99.90;;;;;;5033241;28;20486;-59
2023/09/19 10:48:32;;;;;;;7.03;2.90;;;18.20;99.90;;;;;;5027911;28;20499;-59
2023/09/19 10:51:09;;;;;;;3.87;2.70;;;18.20;99.90;;;;;;5033243;28;20723;-59
2023/09/19 10:53:48;;;;;;;3.53;2.13;;;18.20;99.90;;;;;;5032458;28;20471;-60
2023/09/19 10:56:22;;;;;;;6.33;2.53;;;18.30;99.90;;;;;;5030199;28;20518;-60
2023/09/19 10:58:51;;;;;;;5.10;1.97;;;18.40;99.90;;;;;;5035471;28;20564;-60
2023/09/19 11:01:20;;;;;;;2.97;2.00;;;18.50;99.90;;;;;;5033799;28;20868;-60
2023/09/19 11:03:53;;;;;;;4.93;2.13;;;18.60;99.90;;;;;;5030398;28;20921;-60
2023/09/19 11:06:22;;;;;;;3.20;1.90;;;18.50;99.90;;;;;;5031192;28;20494;-60
2023/09/19 11:08:56;;;;;;;5.70;2.10;;;18.60;99.90;;;;;;5030501;28;20494;-60
2023/09/19 11:11:45;;;;;;;4.13;1.87;;;18.60;99.90;;;;;;5026796;28;20540;-59
2023/09/19 11:14:39;;;;;;;5.93;2.23;;;18.60;99.90;;;;;;5035450;28;20478;-60
2023/09/19 11:17:36;;;;;;;5.00;2.17;;;18.60;99.90;;;;;;5033304;28;20494;-59
2023/09/19 11:20:39;;;;;;;6.30;2.17;;;18.50;99.90;;;;;;5031911;28;20666;-59
2023/09/19 11:23:18;;;;;;;5.80;1.93;;;18.40;99.90;;;;;;5022618;28;20487;-60
2023/09/19 11:25:52;;;;;;;4.33;2.13;;;18.30;99.90;;;;;;5025783;28;20498;-59
2023/09/19 11:28:35;;;;;;;4.30;1.80;;;18.20;99.90;;;;;;5031586;28;20490;-60
2023/09/19 11:31:51;;;;;;;4.43;1.93;;;18.20;99.90;;;;;;5031673;28;20477;-60
2023/09/19 11:34:45;;;;;;;3.37;1.80;;;18.40;99.90;;;;;;5002423;28;20477;-61
2023/09/19 11:38:16;;;;;;;3.43;2.00;;;18.60;99.90;;;;;;5033252;28;20490;-60
2023/09/19 11:40:54;;;;;;;5.10;1.63;;;18.60;99.90;;;;;;5036371;28;20939;-60
2023/09/19 11:43:35;;;;;;;3.53;1.33;;;18.80;99.90;;;;;;5035432;28;20478;-61
2023/09/19 11:46:10;;;;;;;5.30;1.80;;;18.80;99.90;;;;;;5033303;28;20489;-61
2023/09/19 11:48:44;;;;;;;7.07;2.67;;;18.80;99.90;;;;;;5033296;28;20494;-60
2023/09/19 11:51:22;;;;;;;6.10;1.90;;;18.80;99.90;;;;;;5033497;28;20494;-60
2023/09/19 11:53:51;;;;;;;2.70;1.80;;;18.80;99.90;;;;;;5036682;28;20589;-60
2023/09/19 11:56:23;;;;;;;4.33;1.93;;;18.90;99.90;;;;;;5029648;28;20494;-60
2023/09/19 11:58:54;;;;;;;5.80;1.90;;;19.10;99.90;;;;;;5034161;28;20740;-61
2023/09/19 12:01:25;;;;;;;5.70;2.10;;;19.30;99.90;;;;;;5035670;28;20599;-60
2023/09/19 12:03:58;;;;;;;3.73;2.20;;;19.50;99.90;;;;;;5036679;28;20564;-60
2023/09/19 12:06:26;;;;;;;3.80;2.30;;;19.60;99.90;;;;;;5036434;28;20514;-60
2023/09/19 12:08:57;;;;;;;4.60;2.00;;;19.60;99.90;;;;;;5038822;28;20689;-60
2023/09/19 12:11:30;;;;;;;2.90;1.90;;;19.60;99.90;;;;;;5035639;28;20481;-61
2023/09/19 12:14:00;;;;;;;5.13;2.00;;;19.50;99.90;;;;;;5037709;28;20602;-61
2023/09/19 12:16:30;;;;;;;2.50;2.00;;;19.50;99.90;;;;;;5039010;28;20490;-61
2023/09/19 12:18:59;;;;;;;4.07;2.10;;;19.60;99.90;;;;;;5039355;28;20462;-60
2023/09/19 12:21:31;;;;;;;3.93;2.00;;;19.60;99.90;;;;;;5037168;28;20490;-59
2023/09/19 12:24:06;;;;;;;4.00;2.40;;;19.70;99.90;;;;;;5037433;28;20539;-61
2023/09/19 12:26:43;;;;;;;4.43;2.13;;;19.70;99.90;;;;;;5037472;28;20536;-60
2023/09/19 12:29:17;;;;;;;6.70;2.67;;;19.90;99.90;;;;;;5036977;28;20577;-60
2023/09/19 12:31:51;;;;;;;5.77;2.53;;;19.90;99.90;;;;;;5036905;28;20660;-61
2023/09/19 12:34:26;;;;;;;4.40;2.63;;;19.90;99.90;;;;;;5036564;28;20475;-61
2023/09/19 12:37:11;;;;;;;2.60;2.07;;;20.10;99.90;;;;;;5036329;28;21276;-59
2023/09/19 12:39:40;;;;;;;6.63;3.10;;;20.50;99.90;;;;;;5037806;28;20494;-61
2023/09/19 12:42:13;;;;;;;5.20;2.30;;;20.90;99.90;;;;;;5036919;28;21062;-61
2023/09/19 12:44:44;;;;;;;5.37;2.40;;;21.20;99.90;;;;;;5035926;28;20506;-60
2023/09/19 12:47:15;;;;;;;5.70;3.17;;;21.10;99.90;;;;;;5033116;28;20482;-60
2023/09/19 12:50:16;;;;;;;5.23;2.93;;;21.00;99.90;;;;;;5037130;28;20498;-60
2023/09/19 12:52:47;;;;;;;5.93;2.80;;;21.20;99.90;;;;;;5031963;28;20486;-61
2023/09/19 12:55:23;;;;;;;4.60;2.40;;;21.40;99.90;;;;;;5038268;28;20463;-61
2023/09/19 12:58:15;;;;;;;6.33;2.63;;;21.60;99.90;;;;;;5035769;28;20473;-60
2023/09/19 13:00:45;;;;;;;4.83;2.37;;;21.70;99.90;;;;;;5034695;28;20651;-60
2023/09/19 13:03:18;;;;;;;4.33;2.33;;;22.00;99.90;;;;;;5037033;28;20912;-59
2023/09/19 13:05:55;;;;;;;4.20;2.30;;;22.70;99.90;;;;;;5033607;28;20486;-60
2023/09/19 13:08:33;;;;;;;7.57;2.80;;;22.90;99.90;;;;;;5034205;28;20532;-60
2023/09/19 13:11:09;;;;;;;4.00;2.37;;;23.10;99.90;;;;;;5034323;28;20585;-61